CheckWX is a tool to help pilots better visualize weather data.  It is not intended as a substitute for an official pre-flight weather briefing.

17:29:21 UTC

HEIS METAR
Ismailia Airport
Ismailia, Egypt
Current

1 hour ago

HEIS 241600Z 29014KT 9999 SCT025 21/08 Q1004
Observed
Mar-24 @ 16:00 UTC
Wind
  • 290° at 14 KTS
Visibility
10,000+ meters
Flight Rules
VFR
Cloud Levels
  • Scattered at 2,500' AGL
Temperature
21°C / 70°F
Dewpoint
C / 46°F
Humidity
43%
Altimeter
29.65" Hg
Pressure
1003.92 hPa
Previous

2 hours ago

HEIS 241500Z 32015KT 9999 SCT025 22/08 Q1004
Observed
Mar-24 @ 15:00 UTC
Wind
  • 320° at 15 KTS
Visibility
10,000+ meters
Flight Rules
VFR
Cloud Levels
  • Scattered at 2,500' AGL
Temperature
22°C / 72°F
Dewpoint
C / 46°F
Humidity
41%
Altimeter
29.65" Hg
Pressure
1003.92 hPa
Previous

3 hours ago

HEIS 241400Z 26015KT 9999 SCT025 21/09 Q1004
Observed
Mar-24 @ 14:00 UTC
Wind
  • 260° at 15 KTS
Visibility
10,000+ meters
Flight Rules
VFR
Cloud Levels
  • Scattered at 2,500' AGL
Temperature
21°C / 70°F
Dewpoint
C / 48°F
Humidity
46%
Altimeter
29.65" Hg
Pressure
1003.92 hPa